EGNT - Newcastle
Distance from station: E 5mi, 14km
Updated: 06/24/2018 3:50am
Clear
Clear
 Wind from WSW
Wind: WSW 9 mph , 15 km/h
Temperature: 70°F , 21°C
Dew Point: 36°F , 2°C
Humidity: 29%
Barometer: 30.27 inHg , 1025 hPa
Summary: Clear
Visibility: greater than 7 miles , 10 km
2018/06/24 10:50 EGNT 241050Z 25008KT 220V290 CAVOK 21/02 Q1025